Time;durP1;ratioP1;P1;durP2;ratioP2;P2;SDS_P1;SDS_P2;PMS_P1;PMS_P2;Temp;Humidity;BMP_temperature;BMP_pressure;BME280_temperature;BME280_humidity;BME280_pressure;Samples;Min_cycle;Max_cycle;Signal;HPM_P1;HPM_P2
2023/06/14 00:01:13;;;;;;;;;;;18.30;74.50;;;;;;5012683;28;82441;-51
2023/06/14 00:03:38;;;;;;;;;;;18.30;74.50;;;;;;5013803;28;82077;-51
2023/06/14 00:06:04;;;;;;;;;;;18.30;74.40;;;;;;5016318;28;82067;-49
2023/06/14 00:08:30;;;;;;;;;;;18.30;74.40;;;;;;5012786;28;85014;-51
2023/06/14 00:10:55;;;;;;;;;;;18.30;74.50;;;;;;5015676;28;82390;-53
2023/06/14 00:13:21;;;;;;;;;;;18.30;74.50;;;;;;5014200;28;82441;-50
2023/06/14 00:15:47;;;;;;;;;;;18.30;74.50;;;;;;5014906;28;82901;-51
2023/06/14 00:18:13;;;;;;;;;;;18.30;74.50;;;;;;5015512;28;82370;-50
2023/06/14 00:20:39;;;;;;;;;;;18.20;74.50;;;;;;5015842;28;84297;-50
2023/06/14 00:23:04;;;;;;;;;;;18.30;74.60;;;;;;5015546;28;82107;-49
2023/06/14 00:25:30;;;;;;;;;;;18.20;74.50;;;;;;5014962;28;83753;-52
2023/06/14 00:27:56;;;;;;;;;;;18.20;74.60;;;;;;5013710;28;84470;-50
2023/06/14 00:30:21;;;;;;;;;;;18.20;74.50;;;;;;5015821;28;82163;-50
2023/06/14 00:32:47;;;;;;;;;;;18.20;74.60;;;;;;5012205;28;83092;-48
2023/06/14 00:35:13;;;;;;;;;;;18.20;74.60;;;;;;5015591;28;82738;-53
2023/06/14 00:37:38;;;;;;;;;;;18.20;74.60;;;;;;5014644;28;82084;-51
2023/06/14 00:40:04;;;;;;;;;;;18.20;74.50;;;;;;5015617;28;84810;-51
2023/06/14 00:42:30;;;;;;;;;;;18.20;74.60;;;;;;5019075;28;84681;-51
2023/06/14 00:44:56;;;;;;;;;;;18.20;74.60;;;;;;5014429;28;82572;-53
2023/06/14 00:47:21;;;;;;;;;;;18.20;74.60;;;;;;5014477;28;83073;-54
2023/06/14 00:49:47;;;;;;;;;;;18.20;74.60;;;;;;5013935;28;81309;-53
2023/06/14 00:52:14;;;;;;;;;;;18.20;74.60;;;;;;5016158;28;83219;-51
2023/06/14 00:54:40;;;;;;;;;;;18.20;74.60;;;;;;5014268;28;83523;-55
2023/06/14 00:57:05;;;;;;;;;;;18.20;74.60;;;;;;5013053;28;82973;-50
2023/06/14 00:59:31;;;;;;;;;;;18.20;74.70;;;;;;5016239;28;83754;-51
2023/06/14 01:01:57;;;;;;;;;;;18.10;74.60;;;;;;5013612;28;82900;-53
2023/06/14 01:04:22;;;;;;;;;;;18.10;74.60;;;;;;5019096;28;82067;-51
2023/06/14 01:07:12;;;;;;;;;;;18.10;74.70;;;;;;5013502;28;84259;-55
2023/06/14 01:09:43;;;;;;;;;;;18.10;74.60;;;;;;5012411;28;82103;-52
2023/06/14 01:12:15;;;;;;;;;;;18.10;74.60;;;;;;5019919;28;82014;-52
2023/06/14 01:14:41;;;;;;;;;;;18.10;74.70;;;;;;5018684;28;81904;-51
2023/06/14 01:17:07;;;;;;;;;;;18.10;74.70;;;;;;5016699;28;82057;-51
2023/06/14 01:19:34;;;;;;;;;;;18.10;74.70;;;;;;5019180;28;82794;-50
2023/06/14 01:22:00;;;;;;;;;;;18.10;74.80;;;;;;5016902;28;85726;-49
2023/06/14 01:24:28;;;;;;;;;;;18.10;74.80;;;;;;5017003;28;82125;-55
2023/06/14 01:26:55;;;;;;;;;;;18.00;74.80;;;;;;5018843;28;84158;-49
2023/06/14 01:29:25;;;;;;;;;;;18.10;74.80;;;;;;5018036;28;82089;-50
2023/06/14 01:31:51;;;;;;;;;;;18.10;74.70;;;;;;5015490;28;82337;-52
2023/06/14 01:34:17;;;;;;;;;;;18.00;74.80;;;;;;5018041;28;84312;-48
2023/06/14 01:36:44;;;;;;;;;;;18.10;74.70;;;;;;5018968;28;82296;-53
2023/06/14 01:39:12;;;;;;;;;;;18.10;74.70;;;;;;5017041;28;83904;-49
2023/06/14 01:41:37;;;;;;;;;;;18.10;74.80;;;;;;5011479;28;82919;-49
2023/06/14 01:44:03;;;;;;;;;;;18.00;74.70;;;;;;5017137;28;82070;-51
2023/06/14 01:46:29;;;;;;;;;;;18.00;74.70;;;;;;5017787;28;83468;-53
2023/06/14 01:48:54;;;;;;;;;;;18.00;74.70;;;;;;5017489;28;82997;-55
2023/06/14 01:51:20;;;;;;;;;;;18.00;75.10;;;;;;5017213;28;82251;-51
2023/06/14 01:53:46;;;;;;;;;;;18.10;74.80;;;;;;5019134;28;82179;-54
2023/06/14 01:56:12;;;;;;;;;;;18.00;74.80;;;;;;5014728;28;82010;-51
2023/06/14 01:58:37;;;;;;;;;;;18.00;74.80;;;;;;5018373;28;82521;-49
2023/06/14 02:01:03;;;;;;;;;;;18.00;74.80;;;;;;5015598;28;82833;-52
2023/06/14 02:03:28;;;;;;;;;;;18.00;74.80;;;;;;5015148;28;81439;-49
2023/06/14 02:05:55;;;;;;;;;;;18.00;74.80;;;;;;5018205;28;81979;-51
2023/06/14 02:08:20;;;;;;;;;;;18.00;74.80;;;;;;5018816;28;83153;-51
2023/06/14 02:10:46;;;;;;;;;;;18.00;74.80;;;;;;5015210;28;82992;-52
2023/06/14 02:13:12;;;;;;;;;;;18.00;74.80;;;;;;5017196;28;82998;-50
2023/06/14 02:15:37;;;;;;;;;;;18.00;74.80;;;;;;5018403;28;82315;-51
2023/06/14 02:18:03;;;;;;;;;;;18.00;74.80;;;;;;5015531;28;83005;-50
2023/06/14 02:20:29;;;;;;;;;;;17.90;74.80;;;;;;5016803;28;83402;-49
2023/06/14 02:22:54;;;;;;;;;;;17.90;74.80;;;;;;5018676;28;82422;-52
2023/06/14 02:25:20;;;;;;;;;;;18.00;74.70;;;;;;5015950;28;82015;-49
2023/06/14 02:27:45;;;;;;;;;;;18.00;74.70;;;;;;5017110;28;81352;-50
2023/06/14 02:30:11;;;;;;;;;;;18.00;74.70;;;;;;5018746;28;82088;-50
2023/06/14 02:32:38;;;;;;;;;;;17.90;74.80;;;;;;5017720;28;82142;-51
2023/06/14 02:35:03;;;;;;;;;;;17.90;74.90;;;;;;5016179;28;83157;-48
2023/06/14 02:37:29;;;;;;;;;;;17.90;74.80;;;;;;5016018;28;84034;-49
2023/06/14 02:39:55;;;;;;;;;;;17.90;74.80;;;;;;5017700;28;84322;-51
2023/06/14 02:42:21;;;;;;;;;;;17.90;74.90;;;;;;5014847;28;82076;-52
2023/06/14 02:44:50;;;;;;;;;;;17.90;74.80;;;;;;5015995;28;82869;-51
2023/06/14 02:47:19;;;;;;;;;;;17.90;74.80;;;;;;5011553;28;84349;-50
2023/06/14 02:49:46;;;;;;;;;;;17.90;74.80;;;;;;5016408;28;82081;-53
2023/06/14 02:52:11;;;;;;;;;;;17.90;74.80;;;;;;5021134;28;83621;-51
2023/06/14 02:54:37;;;;;;;;;;;17.90;74.80;;;;;;5016399;28;82504;-50
2023/06/14 02:57:03;;;;;;;;;;;17.90;74.80;;;;;;5016766;28;83935;-51
2023/06/14 02:59:28;;;;;;;;;;;17.90;74.80;;;;;;5017277;28;83102;-50
2023/06/14 03:01:54;;;;;;;;;;;17.90;74.80;;;;;;5015845;28;81997;-51
2023/06/14 03:04:20;;;;;;;;;;;17.80;74.80;;;;;;5016531;28;82115;-50
2023/06/14 03:06:50;;;;;;;;;;;17.90;74.80;;;;;;5014968;28;84555;-50
2023/06/14 03:09:16;;;;;;;;;;;17.90;74.80;;;;;;5016788;28;82018;-48
2023/06/14 03:11:41;;;;;;;;;;;17.90;74.80;;;;;;5016874;28;82489;-54
2023/06/14 03:14:08;;;;;;;;;;;17.90;74.80;;;;;;5017151;28;83408;-50
2023/06/14 03:16:33;;;;;;;;;;;17.90;74.80;;;;;;5017363;28;84045;-55
2023/06/14 03:18:59;;;;;;;;;;;17.80;74.70;;;;;;5015220;28;82231;-51
2023/06/14 03:21:25;;;;;;;;;;;17.80;74.70;;;;;;5014904;28;82002;-49
2023/06/14 03:23:52;;;;;;;;;;;17.80;74.80;;;;;;5016335;28;82911;-50
2023/06/14 03:26:18;;;;;;;;;;;17.80;74.80;;;;;;5010421;28;84585;-51
2023/06/14 03:28:45;;;;;;;;;;;17.80;74.80;;;;;;5011322;28;82181;-48
2023/06/14 03:31:11;;;;;;;;;;;17.80;74.80;;;;;;5012973;28;83579;-53
2023/06/14 03:33:36;;;;;;;;;;;17.80;74.90;;;;;;5013539;28;82832;-51
2023/06/14 03:36:02;;;;;;;;;;;17.80;74.80;;;;;;5014526;28;82636;-49
2023/06/14 03:38:28;;;;;;;;;;;17.80;74.80;;;;;;5004233;28;84682;-54
2023/06/14 03:40:53;;;;;;;;;;;17.80;74.80;;;;;;5013634;28;81167;-49
2023/06/14 03:43:19;;;;;;;;;;;17.80;74.90;;;;;;5017224;28;82063;-52
2023/06/14 03:45:45;;;;;;;;;;;17.80;75.50;;;;;;5012799;28;82975;-55
2023/06/14 03:48:11;;;;;;;;;;;17.80;75.00;;;;;;5001808;28;84307;-50
2023/06/14 03:50:37;;;;;;;;;;;17.80;74.90;;;;;;5017368;28;83405;-53
2023/06/14 03:53:03;;;;;;;;;;;17.80;74.80;;;;;;5014759;28;83002;-51
2023/06/14 03:55:31;;;;;;;;;;;17.80;74.80;;;;;;5002813;28;82179;-51
2023/06/14 03:57:56;;;;;;;;;;;17.80;74.80;;;;;;5018103;28;82502;-49
2023/06/14 04:00:23;;;;;;;;;;;17.80;74.80;;;;;;5015279;28;82091;-52
2023/06/14 04:02:48;;;;;;;;;;;17.80;74.90;;;;;;5011086;28;84053;-53
2023/06/14 04:05:16;;;;;;;;;;;17.80;74.80;;;;;;5008302;28;82426;-49
2023/06/14 04:07:45;;;;;;;;;;;17.80;74.90;;;;;;5008197;28;82480;-52
2023/06/14 04:10:11;;;;;;;;;;;17.80;74.90;;;;;;5016866;28;82521;-51
2023/06/14 04:12:37;;;;;;;;;;;17.80;74.90;;;;;;5010234;28;85354;-55
2023/06/14 04:15:05;;;;;;;;;;;17.80;74.90;;;;;;5005303;28;82381;-51
2023/06/14 04:17:32;;;;;;;;;;;17.80;74.90;;;;;;5013589;28;82657;-49
2023/06/14 04:20:02;;;;;;;;;;;17.80;74.90;;;;;;5013786;28;82070;-50
2023/06/14 04:22:28;;;;;;;;;;;17.70;74.80;;;;;;5010515;28;83790;-49
2023/06/14 04:24:56;;;;;;;;;;;17.80;74.90;;;;;;5005117;28;84292;-52
2023/06/14 04:27:24;;;;;;;;;;;17.70;74.90;;;;;;5012546;28;82192;-51
2023/06/14 04:29:56;;;;;;;;;;;17.70;74.80;;;;;;5014464;28;82300;-53
2023/06/14 04:32:25;;;;;;;;;;;17.70;75.00;;;;;;5015723;28;83036;-48
2023/06/14 04:34:53;;;;;;;;;;;17.70;75.00;;;;;;5012822;28;82631;-50
2023/06/14 04:37:20;;;;;;;;;;;17.80;75.00;;;;;;5013966;28;82916;-49
2023/06/14 04:39:46;;;;;;;;;;;17.70;75.00;;;;;;5003067;28;82967;-48
2023/06/14 04:42:14;;;;;;;;;;;17.70;75.00;;;;;;5012379;28;83869;-53
2023/06/14 04:44:43;;;;;;;;;;;17.70;74.90;;;;;;5014623;28;82991;-55
2023/06/14 04:47:12;;;;;;;;;;;17.70;75.00;;;;;;5014239;28;82051;-52
2023/06/14 04:49:38;;;;;;;;;;;17.70;74.90;;;;;;5005085;28;82484;-50
2023/06/14 04:52:04;;;;;;;;;;;17.70;74.90;;;;;;5013370;28;84236;-51
2023/06/14 04:54:31;;;;;;;;;;;17.70;74.80;;;;;;5013892;28;81346;-53
2023/06/14 04:56:57;;;;;;;;;;;17.70;74.80;;;;;;5013748;28;82821;-49
2023/06/14 04:59:25;;;;;;;;;;;17.80;74.80;;;;;;5015023;28;83086;-52
2023/06/14 05:01:51;;;;;;;;;;;17.70;74.80;;;;;;5013351;28;83269;-53
2023/06/14 05:04:17;;;;;;;;;;;17.80;74.80;;;;;;5004926;28;83799;-50
2023/06/14 05:06:44;;;;;;;;;;;17.80;74.80;;;;;;5015506;28;82137;-52
2023/06/14 05:09:10;;;;;;;;;;;17.70;74.70;;;;;;5013812;28;83971;-53
2023/06/14 05:11:36;;;;;;;;;;;17.80;74.70;;;;;;5012393;28;83230;-53
2023/06/14 05:14:01;;;;;;;;;;;17.80;74.70;;;;;;5007863;28;82587;-52
2023/06/14 05:16:27;;;;;;;;;;;17.70;74.80;;;;;;5016232;28;82812;-55
2023/06/14 05:18:52;;;;;;;;;;;17.70;74.80;;;;;;5009327;28;83816;-51
2023/06/14 05:21:18;;;;;;;;;;;17.70;74.90;;;;;;5002601;28;82147;-50
2023/06/14 05:23:44;;;;;;;;;;;17.70;74.80;;;;;;5015820;28;82380;-49
2023/06/14 05:26:10;;;;;;;;;;;17.70;74.90;;;;;;5014739;28;83079;-49
2023/06/14 05:28:36;;;;;;;;;;;17.70;74.90;;;;;;5015183;28;83267;-52
2023/06/14 05:31:01;;;;;;;;;;;17.70;74.80;;;;;;5012939;28;84601;-50
2023/06/14 05:33:27;;;;;;;;;;;17.70;74.90;;;;;;5014550;28;82394;-50
2023/06/14 05:35:52;;;;;;;;;;;17.70;75.00;;;;;;5009382;28;82489;-52
2023/06/14 05:38:18;;;;;;;;;;;17.70;75.00;;;;;;5003379;28;83102;-52
2023/06/14 05:40:43;;;;;;;;;;;17.70;74.90;;;;;;5006724;28;82466;-49
2023/06/14 05:43:10;;;;;;;;;;;17.70;74.90;;;;;;5014994;28;82397;-50
2023/06/14 05:45:35;;;;;;;;;;;17.70;74.90;;;;;;5014377;28;84368;-49
2023/06/14 05:48:01;;;;;;;;;;;17.70;74.90;;;;;;5006851;28;82638;-53
2023/06/14 05:50:26;;;;;;;;;;;17.70;74.90;;;;;;5005791;28;84555;-48
2023/06/14 05:52:53;;;;;;;;;;;17.70;75.10;;;;;;5012044;28;82098;-51
2023/06/14 05:55:18;;;;;;;;;;;17.70;74.90;;;;;;5013337;28;82488;-51
2023/06/14 05:57:44;;;;;;;;;;;17.70;74.90;;;;;;5016847;28;83685;-53
2023/06/14 06:00:15;;;;;;;;;;;17.70;74.90;;;;;;5007201;28;82693;-50
2023/06/14 06:02:43;;;;;;;;;;;17.70;74.80;;;;;;5013319;28;83976;-50
2023/06/14 06:05:12;;;;;;;;;;;17.70;74.90;;;;;;5010124;28;83103;-49
2023/06/14 06:07:39;;;;;;;;;;;17.70;74.80;;;;;;5008945;28;81214;-51
2023/06/14 06:10:05;;;;;;;;;;;17.70;74.80;;;;;;5016287;28;84532;-50
2023/06/14 06:12:32;;;;;;;;;;;17.70;74.80;;;;;;5016262;28;82058;-49
2023/06/14 06:14:58;;;;;;;;;;;17.70;74.70;;;;;;5012165;28;84071;-50
2023/06/14 06:17:24;;;;;;;;;;;17.80;74.70;;;;;;5009681;28;82214;-50
2023/06/14 06:19:50;;;;;;;;;;;17.80;74.80;;;;;;5011224;28;82177;-51
2023/06/14 06:22:15;;;;;;;;;;;17.70;74.80;;;;;;5018755;28;83280;-51
2023/06/14 06:24:41;;;;;;;;;;;17.80;74.80;;;;;;5015725;28;82769;-52
2023/06/14 06:27:10;;;;;;;;;;;17.80;74.90;;;;;;5008735;28;82101;-47
2023/06/14 06:29:35;;;;;;;;;;;17.80;74.80;;;;;;5014045;28;84535;-49
2023/06/14 06:32:01;;;;;;;;;;;17.80;74.80;;;;;;5017908;28;81398;-50
2023/06/14 06:34:27;;;;;;;;;;;17.80;74.70;;;;;;5006111;28;82040;-51
2023/06/14 06:36:52;;;;;;;;;;;17.80;74.80;;;;;;5006246;28;83025;-50
2023/06/14 06:39:18;;;;;;;;;;;17.80;74.80;;;;;;5016470;28;83059;-53
2023/06/14 06:41:43;;;;;;;;;;;17.80;74.80;;;;;;5010400;28;84689;-49
2023/06/14 06:44:10;;;;;;;;;;;17.80;74.90;;;;;;5018908;28;82886;-50
2023/06/14 06:46:39;;;;;;;;;;;17.80;74.80;;;;;;5003858;28;82187;-49
2023/06/14 06:49:05;;;;;;;;;;;17.80;74.90;;;;;;5019080;28;83886;-52
2023/06/14 06:51:31;;;;;;;;;;;17.80;75.10;;;;;;5015168;28;82147;-52
2023/06/14 06:53:56;;;;;;;;;;;17.80;75.20;;;;;;5011760;28;82425;-54
2023/06/14 06:56:23;;;;;;;;;;;17.80;75.00;;;;;;5008868;28;83445;-50
2023/06/14 06:58:49;;;;;;;;;;;17.80;74.90;;;;;;5017692;28;82809;-51
2023/06/14 07:01:15;;;;;;;;;;;17.80;74.90;;;;;;5014922;28;82433;-50
2023/06/14 07:03:41;;;;;;;;;;;17.90;74.90;;;;;;5010545;28;85252;-49
2023/06/14 07:06:06;;;;;;;;;;;17.80;74.90;;;;;;5008460;28;82108;-52
2023/06/14 07:08:32;;;;;;;;;;;17.90;75.00;;;;;;5016639;28;82400;-50
2023/06/14 07:10:57;;;;;;;;;;;17.90;75.00;;;;;;5014738;28;83030;-48
2023/06/14 07:13:23;;;;;;;;;;;17.90;75.00;;;;;;5001605;28;82951;-47
2023/06/14 07:15:48;;;;;;;;;;;17.90;75.00;;;;;;5010299;28;83071;-52
2023/06/14 07:18:14;;;;;;;;;;;17.90;75.00;;;;;;5015642;28;81799;-52
2023/06/14 07:20:40;;;;;;;;;;;17.90;75.20;;;;;;5014644;28;84176;-53
2023/06/14 07:23:05;;;;;;;;;;;17.90;75.20;;;;;;5003837;28;82400;-51
2023/06/14 07:25:31;;;;;;;;;;;17.90;75.20;;;;;;5009471;28;82143;-51
2023/06/14 07:27:56;;;;;;;;;;;17.90;75.30;;;;;;5017190;28;82994;-51
2023/06/14 07:30:25;;;;;;;;;;;17.90;75.60;;;;;;5013523;28;84038;-52
2023/06/14 07:32:54;;;;;;;;;;;17.90;75.40;;;;;;5007831;28;82127;-50
2023/06/14 07:35:19;;;;;;;;;;;17.90;75.90;;;;;;5010579;28;82947;-48
2023/06/14 07:37:46;;;;;;;;;;;17.90;75.90;;;;;;5016531;28;82073;-49
2023/06/14 07:40:12;;;;;;;;;;;17.90;75.70;;;;;;5016820;28;82585;-51
2023/06/14 07:42:38;;;;;;;;;;;17.90;76.10;;;;;;5010014;28;82885;-50
2023/06/14 07:45:04;;;;;;;;;;;17.90;76.10;;;;;;5016862;28;81362;-50
2023/06/14 07:47:30;;;;;;;;;;;17.90;76.10;;;;;;5016569;28;82517;-53
2023/06/14 07:49:55;;;;;;;;;;;17.90;76.30;;;;;;5007158;28;83684;-48
2023/06/14 07:52:21;;;;;;;;;;;18.00;76.10;;;;;;5015723;28;83005;-53
2023/06/14 07:54:46;;;;;;;;;;;17.90;76.00;;;;;;5019785;28;83449;-55
2023/06/14 07:57:12;;;;;;;;;;;18.00;76.10;;;;;;5014460;28;82167;-51
2023/06/14 07:59:37;;;;;;;;;;;18.00;75.80;;;;;;5016369;28;82334;-48
2023/06/14 08:02:03;;;;;;;;;;;18.00;76.00;;;;;;5016534;28;83010;-49
2023/06/14 08:04:28;;;;;;;;;;;18.00;76.10;;;;;;5013807;28;82200;-49
2023/06/14 08:06:54;;;;;;;;;;;17.90;76.10;;;;;;5013145;28;82725;-49
2023/06/14 08:09:19;;;;;;;;;;;18.00;76.30;;;;;;5015645;28;82399;-51
2023/06/14 08:11:45;;;;;;;;;;;18.00;76.20;;;;;;5016752;28;82159;-51
2023/06/14 08:14:11;;;;;;;;;;;18.00;76.30;;;;;;5017584;28;82472;-49
2023/06/14 08:16:37;;;;;;;;;;;18.00;76.30;;;;;;5014239;28;83031;-50
2023/06/14 08:19:03;;;;;;;;;;;17.90;76.30;;;;;;5016239;28;85011;-50
2023/06/14 08:21:29;;;;;;;;;;;18.00;76.30;;;;;;5012107;28;83074;-49
2023/06/14 08:23:54;;;;;;;;;;;18.00;76.20;;;;;;5016076;28;81957;-50
2023/06/14 08:26:20;;;;;;;;;;;18.00;76.30;;;;;;5014273;28;82452;-48
2023/06/14 08:28:46;;;;;;;;;;;18.00;76.20;;;;;;5016223;28;83010;-52
2023/06/14 08:31:12;;;;;;;;;;;18.00;76.30;;;;;;5015311;28;82030;-52
2023/06/14 08:33:39;;;;;;;;;;;18.00;76.30;;;;;;5014307;28;83876;-51
2023/06/14 08:36:04;;;;;;;;;;;18.00;76.40;;;;;;5015673;28;83529;-53
2023/06/14 08:38:30;;;;;;;;;;;18.00;76.50;;;;;;5015847;28;82419;-54
2023/06/14 08:40:57;;;;;;;;;;;18.00;76.40;;;;;;5012819;28;83953;-53
2023/06/14 08:43:22;;;;;;;;;;;18.00;76.40;;;;;;5016450;28;82235;-52
2023/06/14 08:45:51;;;;;;;;;;;18.00;76.30;;;;;;5015661;28;82550;-50
2023/06/14 08:48:20;;;;;;;;;;;18.00;76.30;;;;;;5013663;28;82232;-51
2023/06/14 08:50:46;;;;;;;;;;;18.10;76.30;;;;;;5012075;28;82252;-52
2023/06/14 08:53:16;;;;;;;;;;;18.10;76.30;;;;;;5014189;28;81989;-49
2023/06/14 08:55:43;;;;;;;;;;;18.10;76.90;;;;;;5010268;28;84495;-54
2023/06/14 08:58:09;;;;;;;;;;;18.10;76.40;;;;;;5016843;28;81356;-51
2023/06/14 09:00:37;;;;;;;;;;;18.10;76.50;;;;;;5016038;28;84411;-51
2023/06/14 09:03:03;;;;;;;;;;;18.10;76.40;;;;;;5014229;28;82486;-50
2023/06/14 09:05:28;;;;;;;;;;;18.20;76.30;;;;;;5011355;28;83209;-53
2023/06/14 09:08:00;;;;;;;;;;;18.10;76.20;;;;;;5015414;28;84333;-55
2023/06/14 09:10:27;;;;;;;;;;;18.20;76.30;;;;;;5015133;28;82377;-53
2023/06/14 09:12:52;;;;;;;;;;;18.20;76.30;;;;;;5013893;28;82726;-55
2023/06/14 09:15:18;;;;;;;;;;;18.30;76.40;;;;;;5015816;28;83272;-54
2023/06/14 09:17:44;;;;;;;;;;;18.20;76.40;;;;;;5015029;28;82153;-49
2023/06/14 09:20:10;;;;;;;;;;;18.20;76.30;;;;;;5016010;28;82536;-48
2023/06/14 09:22:37;;;;;;;;;;;18.30;76.30;;;;;;5008424;28;81488;-49
2023/06/14 09:25:03;;;;;;;;;;;18.30;76.20;;;;;;5014830;28;83341;-52
2023/06/14 09:27:29;;;;;;;;;;;18.30;76.20;;;;;;5013135;28;83105;-50
2023/06/14 09:29:55;;;;;;;;;;;18.30;76.10;;;;;;5016649;28;82964;-49
2023/06/14 09:32:20;;;;;;;;;;;18.40;76.30;;;;;;5018203;28;83257;-48
2023/06/14 09:34:46;;;;;;;;;;;18.30;76.20;;;;;;5016517;28;82936;-49
2023/06/14 09:37:11;;;;;;;;;;;18.30;76.20;;;;;;5015364;28;82160;-51
2023/06/14 09:39:50;;;;;;;;;;;18.40;76.30;;;;;;5018030;28;82538;-48
2023/06/14 09:42:18;;;;;;;;;;;18.40;76.30;;;;;;5016122;28;84482;-50
2023/06/14 09:44:44;;;;;;;;;;;18.40;76.30;;;;;;5017626;28;82428;-50
2023/06/14 09:47:09;;;;;;;;;;;18.40;76.40;;;;;;5019657;28;82357;-52
2023/06/14 09:49:35;;;;;;;;;;;18.40;76.60;;;;;;5017030;28;82027;-50
2023/06/14 09:52:01;;;;;;;;;;;18.30;76.50;;;;;;5014453;28;82461;-50
2023/06/14 09:54:27;;;;;;;;;;;18.40;76.50;;;;;;5018523;28;84073;-49
2023/06/14 09:56:53;;;;;;;;;;;18.40;76.30;;;;;;5017069;28;82062;-50
2023/06/14 09:59:21;;;;;;;;;;;18.40;76.40;;;;;;5017136;28;83866;-50
2023/06/14 10:01:48;;;;;;;;;;;18.40;76.40;;;;;;5018501;28;84732;-49
2023/06/14 10:04:15;;;;;;;;;;;18.50;76.30;;;;;;5019942;28;82073;-50
2023/06/14 10:06:41;;;;;;;;;;;18.50;76.30;;;;;;5013534;28;82184;-49
2023/06/14 10:09:08;;;;;;;;;;;18.50;76.30;;;;;;5018795;28;82194;-48
2023/06/14 10:11:35;;;;;;;;;;;18.50;76.40;;;;;;5017592;28;82766;-48
2023/06/14 10:14:01;;;;;;;;;;;18.50;76.40;;;;;;5016214;28;84921;-50
2023/06/14 10:16:30;;;;;;;;;;;18.50;76.40;;;;;;5018921;28;82468;-48
2023/06/14 10:19:02;;;;;;;;;;;18.50;76.50;;;;;;5017078;28;84092;-52
2023/06/14 10:21:42;;;;;;;;;;;18.50;76.40;;;;;;5016994;28;83008;-52
2023/06/14 10:24:10;;;;;;;;;;;18.50;77.00;;;;;;5020460;28;81986;-53
2023/06/14 10:26:49;;;;;;;;;;;18.50;76.40;;;;;;5016479;28;83579;-53
2023/06/14 10:29:15;;;;;;;;;;;18.50;76.40;;;;;;5012620;28;82024;-49
2023/06/14 10:31:50;;;;;;;;;;;18.50;77.10;;;;;;5017258;28;83331;-49
2023/06/14 10:34:29;;;;;;;;;;;18.50;76.50;;;;;;5012504;28;82984;-51
2023/06/14 10:37:02;;;;;;;;;;;18.60;76.50;;;;;;5008547;28;81453;-52
2023/06/14 10:39:28;;;;;;;;;;;18.60;76.30;;;;;;5016262;28;83017;-49
2023/06/14 10:41:54;;;;;;;;;;;18.60;76.30;;;;;;5017800;28;82614;-52
2023/06/14 10:44:20;;;;;;;;;;;18.70;76.30;;;;;;5015170;28;83016;-50
2023/06/14 10:46:46;;;;;;;;;;;18.70;76.40;;;;;;5019535;28;83176;-49
2023/06/14 10:49:11;;;;;;;;;;;18.60;76.40;;;;;;5018440;28;82059;-51
2023/06/14 10:51:47;;;;;;;;;;;18.70;76.20;;;;;;5010857;28;82146;-50
2023/06/14 10:54:15;;;;;;;;;;;18.70;76.20;;;;;;5009402;28;82413;-49
2023/06/14 10:56:48;;;;;;;;;;;18.80;76.20;;;;;;5012662;28;82073;-49
2023/06/14 10:59:14;;;;;;;;;;;18.70;76.20;;;;;;5015635;28;82043;-49
2023/06/14 11:01:58;;;;;;;;;;;18.80;76.30;;;;;;5012027;28;83663;-51
2023/06/14 11:04:30;;;;;;;;;;;18.80;76.20;;;;;;5011863;28;82021;-51
2023/06/14 11:07:03;;;;;;;;;;;18.80;76.10;;;;;;5014650;28;82714;-49
2023/06/14 11:09:36;;;;;;;;;;;18.80;76.20;;;;;;5018242;28;83832;-50
2023/06/14 11:12:02;;;;;;;;;;;18.80;76.20;;;;;;5015222;28;84663;-50
2023/06/14 11:14:31;;;;;;;;;;;18.80;76.10;;;;;;5017676;28;82897;-50
2023/06/14 11:16:56;;;;;;;;;;;18.90;76.10;;;;;;5016839;28;82099;-50
2023/06/14 11:19:22;;;;;;;;;;;18.90;76.20;;;;;;5015361;28;82037;-51
2023/06/14 11:21:50;;;;;;;;;;;18.90;76.20;;;;;;5014595;28;82682;-49
2023/06/14 11:24:16;;;;;;;;;;;18.90;76.10;;;;;;5015048;28;82105;-55
2023/06/14 11:26:42;;;;;;;;;;;18.90;76.20;;;;;;5018304;28;82412;-47
2023/06/14 11:29:07;;;;;;;;;;;18.90;76.20;;;;;;5015337;28;84237;-48
2023/06/14 11:31:33;;;;;;;;;;;18.90;76.10;;;;;;5018794;28;82062;-49
2023/06/14 11:33:59;;;;;;;;;;;18.90;76.00;;;;;;5016790;28;83835;-48
2023/06/14 11:36:31;;;;;;;;;;;19.00;76.10;;;;;;5014195;28;83129;-51
2023/06/14 11:39:00;;;;;;;;;;;19.00;76.00;;;;;;5011756;28;82955;-49
2023/06/14 11:41:31;;;;;;;;;;;19.00;76.10;;;;;;5011519;28;84392;-50
2023/06/14 11:43:57;;;;;;;;;;;19.10;76.10;;;;;;5014994;28;82064;-48
2023/06/14 11:46:25;;;;;;;;;;;19.10;76.10;;;;;;5017057;28;83909;-48
2023/06/14 11:48:51;;;;;;;;;;;19.10;76.10;;;;;;5016021;28;83103;-49
2023/06/14 11:51:18;;;;;;;;;;;19.10;76.10;;;;;;5013588;28;81371;-48
2023/06/14 11:53:44;;;;;;;;;;;19.10;76.80;;;;;;5010724;28;82171;-48
2023/06/14 11:56:09;;;;;;;;;;;19.10;76.20;;;;;;5015970;28;82046;-49
2023/06/14 11:58:35;;;;;;;;;;;19.10;76.20;;;;;;5016983;28;82975;-47
2023/06/14 12:01:02;;;;;;;;;;;19.20;76.20;;;;;;5010577;28;83398;-51
2023/06/14 12:03:28;;;;;;;;;;;19.10;76.30;;;;;;5015359;28;82081;-52
2023/06/14 12:06:09;;;;;;;;;;;19.10;76.40;;;;;;5017301;28;82465;-50
2023/06/14 12:08:39;;;;;;;;;;;19.10;76.20;;;;;;5013220;28;82072;-48
2023/06/14 12:11:06;;;;;;;;;;;19.20;76.20;;;;;;5010712;28;82128;-48
2023/06/14 12:13:31;;;;;;;;;;;19.20;76.10;;;;;;5015516;28;82606;-51
2023/06/14 12:15:57;;;;;;;;;;;19.20;76.10;;;;;;5020168;28;82013;-49
2023/06/14 12:18:34;;;;;;;;;;;19.20;76.10;;;;;;5014426;28;83029;-49
2023/06/14 12:21:02;;;;;;;;;;;19.20;76.20;;;;;;5013734;28;84488;-47
2023/06/14 12:23:47;;;;;;;;;;;19.20;76.20;;;;;;5011784;28;83040;-48
2023/06/14 12:26:14;;;;;;;;;;;19.30;76.20;;;;;;5012191;28;83398;-48
2023/06/14 12:28:40;;;;;;;;;;;19.30;76.20;;;;;;5014443;28;82990;-50
2023/06/14 12:31:06;;;;;;;;;;;19.30;76.20;;;;;;5016653;28;82099;-52
2023/06/14 12:33:31;;;;;;;;;;;19.30;76.30;;;;;;5013690;28;86095;-47
2023/06/14 12:35:57;;;;;;;;;;;19.20;76.10;;;;;;5017192;28;82957;-48
2023/06/14 12:38:24;;;;;;;;;;;19.30;76.20;;;;;;5012294;28;82939;-49
2023/06/14 12:40:49;;;;;;;;;;;19.30;76.20;;;;;;5014146;28;82284;-48
2023/06/14 12:43:15;;;;;;;;;;;19.30;76.10;;;;;;5014700;28;82113;-47
2023/06/14 12:45:40;;;;;;;;;;;19.30;76.10;;;;;;5016722;28;82472;-52
2023/06/14 12:48:06;;;;;;;;;;;19.30;76.20;;;;;;5013943;28;83099;-49
2023/06/14 12:50:31;;;;;;;;;;;19.30;76.20;;;;;;5014406;28;82126;-51
2023/06/14 12:52:57;;;;;;;;;;;19.30;76.20;;;;;;5015623;28;82199;-47
2023/06/14 12:55:22;;;;;;;;;;;19.30;76.20;;;;;;5011455;28;82281;-51
2023/06/14 12:57:49;;;;;;;;;;;19.30;76.20;;;;;;5017796;28;82062;-49
2023/06/14 13:00:15;;;;;;;;;;;19.30;76.70;;;;;;5013354;28;84324;-52
2023/06/14 13:02:40;;;;;;;;;;;19.30;76.00;;;;;;5015908;28;82006;-48
2023/06/14 13:05:06;;;;;;;;;;;19.40;76.00;;;;;;5019384;28;81215;-50
2023/06/14 13:07:32;;;;;;;;;;;19.30;75.90;;;;;;5016841;28;84152;-50
2023/06/14 13:09:58;;;;;;;;;;;19.40;76.00;;;;;;5017041;28;83743;-49
2023/06/14 13:12:23;;;;;;;;;;;19.40;76.10;;;;;;5018102;28;83042;-50
2023/06/14 13:14:49;;;;;;;;;;;19.40;76.00;;;;;;5017133;28;83087;-51
2023/06/14 13:17:15;;;;;;;;;;;19.40;76.00;;;;;;5013554;28;82060;-51
2023/06/14 13:19:42;;;;;;;;;;;19.40;76.00;;;;;;5021426;28;82179;-52
2023/06/14 13:22:08;;;;;;;;;;;19.40;76.10;;;;;;5019614;28;82037;-50
2023/06/14 13:24:33;;;;;;;;;;;19.40;76.10;;;;;;5015897;28;82113;-49
2023/06/14 13:26:59;;;;;;;;;;;19.50;76.10;;;;;;5014867;28;88044;-46
2023/06/14 13:29:25;;;;;;;;;;;19.50;76.20;;;;;;5016578;28;86401;-46
2023/06/14 13:31:50;;;;;;;;;;;19.50;76.20;;;;;;5013522;28;88173;-49
2023/06/14 13:34:16;;;;;;;;;;;19.50;76.20;;;;;;5014949;28;88084;-49
2023/06/14 13:37:00;;;;;;;;;;;19.50;76.20;;;;;;5015160;28;88116;-47
2023/06/14 13:39:26;;;;;;;;;;;19.50;76.20;;;;;;5009749;28;88923;-48
2023/06/14 13:41:51;;;;;;;;;;;19.50;76.10;;;;;;5018402;28;88025;-49
2023/06/14 13:44:18;;;;;;;;;;;19.50;76.10;;;;;;5014221;28;87431;-50
2023/06/14 13:46:44;;;;;;;;;;;19.50;76.20;;;;;;5013346;28;89255;-47
2023/06/14 13:49:10;;;;;;;;;;;19.50;76.10;;;;;;5015863;28;87178;-48
2023/06/14 13:51:36;;;;;;;;;;;19.50;76.10;;;;;;5014226;28;87710;-47
2023/06/14 13:54:02;;;;;;;;;;;19.50;76.00;;;;;;5014011;28;87323;-50
2023/06/14 13:56:27;;;;;;;;;;;19.60;76.00;;;;;;5011323;28;87138;-46
2023/06/14 13:58:52;;;;;;;;;;;19.60;76.10;;;;;;5013972;28;87581;-50
2023/06/14 14:01:19;;;;;;;;;;;19.50;76.00;;;;;;5013144;28;89184;-46
2023/06/14 14:03:49;;;;;;;;;;;19.60;76.00;;;;;;5017845;28;87532;-50
2023/06/14 14:06:15;;;;;;;;;;;19.60;76.00;;;;;;5013449;28;89377;-46
2023/06/14 14:08:40;;;;;;;;;;;19.60;76.10;;;;;;5012116;28;88234;-47
2023/06/14 14:11:07;;;;;;;;;;;19.60;76.00;;;;;;5012122;28;88952;-46
2023/06/14 14:13:33;;;;;;;;;;;19.60;75.90;;;;;;5014088;28;88019;-48